sensor_id;sensor_type;location;lat;lon;timestamp;pressure;altitude;pressure_sealevel;temperature;humidity
61357;BME280;47227;46.752;23.576;2023-03-03T00:02:09;96425.92;;;3.91;71.60
61357;BME280;47227;46.752;23.576;2023-03-03T00:04:38;96431.45;;;3.89;71.65
61357;BME280;47227;46.752;23.576;2023-03-03T00:07:07;96429.65;;;3.88;71.61
61357;BME280;47227;46.752;23.576;2023-03-03T00:09:35;96421.64;;;3.87;71.57
61357;BME280;47227;46.752;23.576;2023-03-03T00:12:20;96426.55;;;3.87;71.53
61357;BME280;47227;46.752;23.576;2023-03-03T00:14:50;96426.36;;;3.85;71.63
61357;BME280;47227;46.752;23.576;2023-03-03T00:17:22;96425.91;;;3.82;71.58
61357;BME280;47227;46.752;23.576;2023-03-03T00:23:14;96423.77;;;3.79;71.64
61357;BME280;47227;46.752;23.576;2023-03-03T00:25:45;96419.73;;;3.78;72.25
61357;BME280;47227;46.752;23.576;2023-03-03T00:28:23;96419.73;;;3.78;71.97
61357;BME280;47227;46.752;23.576;2023-03-03T00:30:55;96417.94;;;3.79;71.97
61357;BME280;47227;46.752;23.576;2023-03-03T00:33:27;96411.35;;;3.80;71.76
61357;BME280;47227;46.752;23.576;2023-03-03T00:35:56;96412.47;;;3.81;71.76
61357;BME280;47227;46.752;23.576;2023-03-03T00:38:29;96409.19;;;3.81;71.89
61357;BME280;47227;46.752;23.576;2023-03-03T00:40:59;96408.84;;;3.82;71.96
61357;BME280;47227;46.752;23.576;2023-03-03T00:43:35;96408.30;;;3.83;72.07
61357;BME280;47227;46.752;23.576;2023-03-03T00:46:04;96407.78;;;3.84;72.06
61357;BME280;47227;46.752;23.576;2023-03-03T00:48:52;96409.66;;;3.85;72.18
61357;BME280;47227;46.752;23.576;2023-03-03T00:51:28;96406.70;;;3.86;72.17
61357;BME280;47227;46.752;23.576;2023-03-03T00:53:57;96407.55;;;3.89;71.97
61357;BME280;47227;46.752;23.576;2023-03-03T00:56:27;96404.55;;;3.94;71.90
61357;BME280;47227;46.752;23.576;2023-03-03T00:58:56;96401.98;;;4.00;72.25
61357;BME280;47227;46.752;23.576;2023-03-03T01:01:25;96398.41;;;4.07;72.43
61357;BME280;47227;46.752;23.576;2023-03-03T01:03:55;96399.84;;;4.15;72.27
61357;BME280;47227;46.752;23.576;2023-03-03T01:06:23;96399.95;;;4.22;72.31
61357;BME280;47227;46.752;23.576;2023-03-03T01:08:51;96398.52;;;4.29;72.32
61357;BME280;47227;46.752;23.576;2023-03-03T01:11:23;96395.52;;;4.35;72.07
61357;BME280;47227;46.752;23.576;2023-03-03T01:13:53;96396.22;;;4.40;72.01
61357;BME280;47227;46.752;23.576;2023-03-03T01:16:21;96396.45;;;4.43;71.75
61357;BME280;47227;46.752;23.576;2023-03-03T01:18:50;96392.77;;;4.43;71.62
61357;BME280;47227;46.752;23.576;2023-03-03T01:21:21;96389.98;;;4.44;71.65
61357;BME280;47227;46.752;23.576;2023-03-03T01:23:51;96390.06;;;4.42;71.71
61357;BME280;47227;46.752;23.576;2023-03-03T01:26:24;96384.98;;;4.41;71.55
61357;BME280;47227;46.752;23.576;2023-03-03T01:29:15;96384.07;;;4.39;71.33
61357;BME280;47227;46.752;23.576;2023-03-03T01:31:43;96387.77;;;4.37;71.67
61357;BME280;47227;46.752;23.576;2023-03-03T01:34:15;96387.20;;;4.36;71.45
61357;BME280;47227;46.752;23.576;2023-03-03T01:36:43;96387.52;;;4.35;71.49
61357;BME280;47227;46.752;23.576;2023-03-03T01:39:12;96385.14;;;4.32;71.22
61357;BME280;47227;46.752;23.576;2023-03-03T01:41:40;96386.46;;;4.30;71.33
61357;BME280;47227;46.752;23.576;2023-03-03T01:44:14;96383.16;;;4.25;71.15
61357;BME280;47227;46.752;23.576;2023-03-03T01:46:51;96381.45;;;4.19;71.09
61357;BME280;47227;46.752;23.576;2023-03-03T01:49:29;96377.20;;;4.15;71.24
61357;BME280;47227;46.752;23.576;2023-03-03T01:55:21;96377.92;;;4.10;71.22
61357;BME280;47227;46.752;23.576;2023-03-03T01:58:01;96377.49;;;4.10;71.57
61357;BME280;47227;46.752;23.576;2023-03-03T02:00:33;96377.08;;;4.10;71.59
61357;BME280;47227;46.752;23.576;2023-03-03T02:03:03;96376.84;;;4.09;71.59
61357;BME280;47227;46.752;23.576;2023-03-03T02:05:33;96374.18;;;4.09;71.21
61357;BME280;47227;46.752;23.576;2023-03-03T02:08:03;96374.83;;;4.09;71.32
61357;BME280;47227;46.752;23.576;2023-03-03T02:10:36;96374.79;;;4.08;71.44
61357;BME280;47227;46.752;23.576;2023-03-03T02:13:04;96372.59;;;4.07;71.41
61357;BME280;47227;46.752;23.576;2023-03-03T02:15:34;96376.45;;;4.05;71.23
61357;BME280;47227;46.752;23.576;2023-03-03T02:18:07;96373.32;;;4.02;71.42
61357;BME280;47227;46.752;23.576;2023-03-03T02:21:00;96372.00;;;4.02;71.40
61357;BME280;47227;46.752;23.576;2023-03-03T02:26:25;96371.39;;;4.04;71.62
61357;BME280;47227;46.752;23.576;2023-03-03T02:28:56;96368.79;;;4.08;71.49
61357;BME280;47227;46.752;23.576;2023-03-03T02:31:28;96370.94;;;4.14;71.66
61357;BME280;47227;46.752;23.576;2023-03-03T02:33:57;96369.98;;;4.21;71.63
61357;BME280;47227;46.752;23.576;2023-03-03T02:36:46;96369.05;;;4.28;71.64
61357;BME280;47227;46.752;23.576;2023-03-03T02:39:25;96366.84;;;4.36;71.69
61357;BME280;47227;46.752;23.576;2023-03-03T02:42:08;96366.61;;;4.40;71.59
61357;BME280;47227;46.752;23.576;2023-03-03T02:44:44;96361.69;;;4.43;71.48
61357;BME280;47227;46.752;23.576;2023-03-03T02:47:14;96360.01;;;4.44;71.36
61357;BME280;47227;46.752;23.576;2023-03-03T02:49:44;96360.77;;;4.43;71.19
61357;BME280;47227;46.752;23.576;2023-03-03T02:52:13;96362.24;;;4.42;71.00
61357;BME280;47227;46.752;23.576;2023-03-03T02:54:44;96361.19;;;4.40;71.07
61357;BME280;47227;46.752;23.576;2023-03-03T02:57:12;96359.40;;;4.37;70.94
61357;BME280;47227;46.752;23.576;2023-03-03T02:59:40;96358.14;;;4.32;70.88
61357;BME280;47227;46.752;23.576;2023-03-03T03:02:11;96358.31;;;4.28;70.79
61357;BME280;47227;46.752;23.576;2023-03-03T03:04:39;96357.16;;;4.25;70.76
61357;BME280;47227;46.752;23.576;2023-03-03T03:07:09;96356.97;;;4.21;70.80
61357;BME280;47227;46.752;23.576;2023-03-03T03:09:38;96353.98;;;4.18;70.94
61357;BME280;47227;46.752;23.576;2023-03-03T03:12:06;96354.71;;;4.15;70.92
61357;BME280;47227;46.752;23.576;2023-03-03T03:14:35;96350.89;;;4.11;71.00
61357;BME280;47227;46.752;23.576;2023-03-03T03:17:04;96347.58;;;4.07;71.06
61357;BME280;47227;46.752;23.576;2023-03-03T03:19:32;96344.92;;;4.04;71.16
61357;BME280;47227;46.752;23.576;2023-03-03T03:22:01;96345.88;;;4.00;71.37
61357;BME280;47227;46.752;23.576;2023-03-03T03:24:29;96345.42;;;3.99;71.39
61357;BME280;47227;46.752;23.576;2023-03-03T03:27:03;96346.85;;;3.99;71.27
61357;BME280;47227;46.752;23.576;2023-03-03T03:29:32;96340.70;;;3.96;71.36
61357;BME280;47227;46.752;23.576;2023-03-03T03:32:00;96342.95;;;3.95;71.36
61357;BME280;47227;46.752;23.576;2023-03-03T03:34:28;96343.18;;;3.95;71.99
61357;BME280;47227;46.752;23.576;2023-03-03T03:36:57;96342.55;;;3.94;71.71
61357;BME280;47227;46.752;23.576;2023-03-03T03:39:27;96339.11;;;3.94;71.69
61357;BME280;47227;46.752;23.576;2023-03-03T03:41:58;96338.55;;;3.95;71.75
61357;BME280;47227;46.752;23.576;2023-03-03T03:44:27;96336.88;;;3.95;71.70
61357;BME280;47227;46.752;23.576;2023-03-03T03:46:58;96332.23;;;3.96;71.72
61357;BME280;47227;46.752;23.576;2023-03-03T03:49:32;96332.12;;;3.97;71.69
61357;BME280;47227;46.752;23.576;2023-03-03T03:52:02;96328.16;;;3.98;71.81
61357;BME280;47227;46.752;23.576;2023-03-03T03:54:31;96329.89;;;4.01;71.88
61357;BME280;47227;46.752;23.576;2023-03-03T03:56:59;96330.23;;;4.05;71.98
61357;BME280;47227;46.752;23.576;2023-03-03T03:59:28;96327.70;;;4.10;71.97
61357;BME280;47227;46.752;23.576;2023-03-03T04:01:57;96326.84;;;4.15;71.90
61357;BME280;47227;46.752;23.576;2023-03-03T04:04:26;96325.77;;;4.20;71.94
61357;BME280;47227;46.752;23.576;2023-03-03T04:06:54;96319.58;;;4.25;71.76
61357;BME280;47227;46.752;23.576;2023-03-03T04:09:23;96321.40;;;4.30;71.78
61357;BME280;47227;46.752;23.576;2023-03-03T04:11:51;96317.55;;;4.34;71.98
61357;BME280;47227;46.752;23.576;2023-03-03T04:14:21;96318.96;;;4.38;71.86
61357;BME280;47227;46.752;23.576;2023-03-03T04:16:49;96317.96;;;4.40;71.81
61357;BME280;47227;46.752;23.576;2023-03-03T04:19:17;96317.09;;;4.44;71.90
61357;BME280;47227;46.752;23.576;2023-03-03T04:21:46;96318.13;;;4.46;71.80
61357;BME280;47227;46.752;23.576;2023-03-03T04:24:14;96317.40;;;4.48;71.53
61357;BME280;47227;46.752;23.576;2023-03-03T04:26:43;96312.33;;;4.47;71.42
61357;BME280;47227;46.752;23.576;2023-03-03T04:29:11;96316.41;;;4.45;71.45
61357;BME280;47227;46.752;23.576;2023-03-03T04:31:40;96318.78;;;4.42;71.27
61357;BME280;47227;46.752;23.576;2023-03-03T04:34:13;96322.02;;;4.42;71.23
61357;BME280;47227;46.752;23.576;2023-03-03T04:36:41;96318.36;;;4.40;71.59
61357;BME280;47227;46.752;23.576;2023-03-03T04:39:10;96319.76;;;4.38;71.53
61357;BME280;47227;46.752;23.576;2023-03-03T04:41:39;96316.58;;;4.37;71.40
61357;BME280;47227;46.752;23.576;2023-03-03T04:44:07;96317.57;;;4.35;71.70
61357;BME280;47227;46.752;23.576;2023-03-03T04:46:35;96316.83;;;4.32;71.70
61357;BME280;47227;46.752;23.576;2023-03-03T04:49:03;96320.08;;;4.31;71.84
61357;BME280;47227;46.752;23.576;2023-03-03T04:51:39;96318.71;;;4.29;71.88
61357;BME280;47227;46.752;23.576;2023-03-03T04:54:15;96319.45;;;4.26;71.83
61357;BME280;47227;46.752;23.576;2023-03-03T04:56:54;96318.55;;;4.24;71.96
61357;BME280;47227;46.752;23.576;2023-03-03T04:59:37;96318.46;;;4.20;71.80
61357;BME280;47227;46.752;23.576;2023-03-03T05:02:05;96315.61;;;4.19;72.06
61357;BME280;47227;46.752;23.576;2023-03-03T05:04:34;96313.11;;;4.15;72.16
61357;BME280;47227;46.752;23.576;2023-03-03T05:07:03;96313.47;;;4.12;72.36
61357;BME280;47227;46.752;23.576;2023-03-03T05:09:31;96311.55;;;4.11;72.16
61357;BME280;47227;46.752;23.576;2023-03-03T05:12:00;96313.35;;;4.13;72.16
61357;BME280;47227;46.752;23.576;2023-03-03T05:14:28;96314.38;;;4.16;72.07
61357;BME280;47227;46.752;23.576;2023-03-03T05:16:56;96309.65;;;4.18;72.44
61357;BME280;47227;46.752;23.576;2023-03-03T05:19:25;96312.52;;;4.18;72.69
61357;BME280;47227;46.752;23.576;2023-03-03T05:21:53;96309.36;;;4.20;72.51
61357;BME280;47227;46.752;23.576;2023-03-03T05:24:22;96307.77;;;4.23;72.57
61357;BME280;47227;46.752;23.576;2023-03-03T05:26:52;96307.06;;;4.25;72.40
61357;BME280;47227;46.752;23.576;2023-03-03T05:29:20;96312.30;;;4.29;72.47
61357;BME280;47227;46.752;23.576;2023-03-03T05:31:52;96311.20;;;4.33;72.53
61357;BME280;47227;46.752;23.576;2023-03-03T05:34:20;96312.41;;;4.39;72.68
61357;BME280;47227;46.752;23.576;2023-03-03T05:36:48;96315.61;;;4.46;72.60
61357;BME280;47227;46.752;23.576;2023-03-03T05:39:16;96312.23;;;4.51;72.72
61357;BME280;47227;46.752;23.576;2023-03-03T06:06:35;96307.38;;;4.95;72.13
61357;BME280;47227;46.752;23.576;2023-03-03T06:15:04;96307.73;;;5.01;71.99
61357;BME280;47227;46.752;23.576;2023-03-03T06:55:11;96322.02;;;5.33;72.45
61357;BME280;47227;46.752;23.576;2023-03-03T06:59:34;96321.08;;;5.46;71.91
61357;BME280;47227;46.752;23.576;2023-03-03T07:25:25;96328.70;;;6.80;68.66
61357;BME280;47227;46.752;23.576;2023-03-03T07:28:21;96328.92;;;7.04;67.24
61357;BME280;47227;46.752;23.576;2023-03-03T07:31:35;96331.15;;;7.16;67.93
61357;BME280;47227;46.752;23.576;2023-03-03T07:35:37;96330.19;;;7.31;67.56
61357;BME280;47227;46.752;23.576;2023-03-03T07:40:30;96333.40;;;7.39;66.15
61357;BME280;47227;46.752;23.576;2023-03-03T07:44:32;96329.16;;;7.50;65.61
61357;BME280;47227;46.752;23.576;2023-03-03T07:47:26;96326.87;;;7.56;65.28
61357;BME280;47227;46.752;23.576;2023-03-03T08:04:51;96320.41;;;7.90;63.81
61357;BME280;47227;46.752;23.576;2023-03-03T08:07:40;96319.14;;;7.85;63.51
61357;BME280;47227;46.752;23.576;2023-03-03T08:37:29;96323.09;;;8.39;62.99
61357;BME280;47227;46.752;23.576;2023-03-03T08:40:36;96320.36;;;8.51;62.25
61357;BME280;47227;46.752;23.576;2023-03-03T08:46:56;96321.15;;;8.83;62.60
61357;BME280;47227;46.752;23.576;2023-03-03T08:49:39;96322.05;;;8.90;61.74
61357;BME280;47227;46.752;23.576;2023-03-03T08:55:25;96319.58;;;8.44;61.26
61357;BME280;47227;46.752;23.576;2023-03-03T08:58:50;96320.65;;;8.73;61.66
61357;BME280;47227;46.752;23.576;2023-03-03T09:01:33;96322.59;;;8.81;61.22
61357;BME280;47227;46.752;23.576;2023-03-03T09:04:42;96320.73;;;8.66;59.95
61357;BME280;47227;46.752;23.576;2023-03-03T09:08:12;96324.16;;;8.79;59.91
61357;BME280;47227;46.752;23.576;2023-03-03T09:10:51;96317.55;;;9.02;60.72
61357;BME280;47227;46.752;23.576;2023-03-03T09:14:17;96322.88;;;9.26;60.13
61357;BME280;47227;46.752;23.576;2023-03-03T09:17:25;96317.17;;;9.40;58.01
61357;BME280;47227;46.752;23.576;2023-03-03T09:20:31;96320.79;;;9.41;56.73
61357;BME280;47227;46.752;23.576;2023-03-03T09:24:09;96316.42;;;9.45;57.44
61357;BME280;47227;46.752;23.576;2023-03-03T09:27:45;96306.30;;;9.18;57.38
61357;BME280;47227;46.752;23.576;2023-03-03T09:43:06;96294.52;;;8.74;48.49
61357;BME280;47227;46.752;23.576;2023-03-03T09:46:21;96299.25;;;8.91;48.65
61357;BME280;47227;46.752;23.576;2023-03-03T09:49:33;96304.38;;;8.73;47.39
61357;BME280;47227;46.752;23.576;2023-03-03T09:52:45;96302.58;;;8.78;47.44
61357;BME280;47227;46.752;23.576;2023-03-03T09:56:08;96300.34;;;8.69;47.71
61357;BME280;47227;46.752;23.576;2023-03-03T09:59:29;96299.27;;;8.73;48.82
61357;BME280;47227;46.752;23.576;2023-03-03T10:06:24;96290.81;;;8.68;48.81
61357;BME280;47227;46.752;23.576;2023-03-03T10:13:16;96293.58;;;8.89;47.87
61357;BME280;47227;46.752;23.576;2023-03-03T10:16:18;96289.58;;;8.75;46.91
61357;BME280;47227;46.752;23.576;2023-03-03T10:20:23;96287.10;;;8.99;48.54
61357;BME280;47227;46.752;23.576;2023-03-03T10:24:22;96287.95;;;9.46;48.10
61357;BME280;47227;46.752;23.576;2023-03-03T10:31:13;96273.58;;;10.19;45.45
61357;BME280;47227;46.752;23.576;2023-03-03T10:34:17;96265.77;;;10.47;44.83
61357;BME280;47227;46.752;23.576;2023-03-03T11:09:12;96236.52;;;11.97;41.15
61357;BME280;47227;46.752;23.576;2023-03-03T11:12:33;96232.10;;;11.34;39.62
61357;BME280;47227;46.752;23.576;2023-03-03T11:15:32;96229.63;;;11.44;41.04
61357;BME280;47227;46.752;23.576;2023-03-03T11:18:14;96230.73;;;11.68;41.01
61357;BME280;47227;46.752;23.576;2023-03-03T11:21:22;96231.98;;;12.07;40.64
61357;BME280;47227;46.752;23.576;2023-03-03T11:27:01;96227.02;;;12.49;40.19
61357;BME280;47227;46.752;23.576;2023-03-03T11:30:00;96228.71;;;12.33;40.02
61357;BME280;47227;46.752;23.576;2023-03-03T11:33:06;96220.70;;;11.83;41.64
61357;BME280;47227;46.752;23.576;2023-03-03T11:52:31;96202.55;;;13.69;38.00
61357;BME280;47227;46.752;23.576;2023-03-03T12:02:43;96200.42;;;11.83;40.29
61357;BME280;47227;46.752;23.576;2023-03-03T12:21:42;96201.10;;;12.81;38.18
61357;BME280;47227;46.752;23.576;2023-03-03T12:25:56;96201.98;;;13.37;37.56
61357;BME280;47227;46.752;23.576;2023-03-03T12:30:12;96198.93;;;14.04;35.97
61357;BME280;47227;46.752;23.576;2023-03-03T12:54:52;96196.85;;;12.50;38.83
61357;BME280;47227;46.752;23.576;2023-03-03T12:57:38;96193.10;;;12.80;38.10
61357;BME280;47227;46.752;23.576;2023-03-03T13:00:27;96193.69;;;13.47;37.40
61357;BME280;47227;46.752;23.576;2023-03-03T13:03:05;96186.36;;;14.09;35.39
61357;BME280;47227;46.752;23.576;2023-03-03T13:08:43;96188.08;;;14.64;34.55
61357;BME280;47227;46.752;23.576;2023-03-03T13:11:34;96182.11;;;14.84;33.17
61357;BME280;47227;46.752;23.576;2023-03-03T13:14:16;96184.81;;;15.54;33.27
61357;BME280;47227;46.752;23.576;2023-03-03T13:16:59;96178.42;;;16.02;33.22
61357;BME280;47227;46.752;23.576;2023-03-03T13:19:37;96178.98;;;14.88;34.32
61357;BME280;47227;46.752;23.576;2023-03-03T13:22:12;96180.52;;;13.66;36.64
61357;BME280;47227;46.752;23.576;2023-03-03T13:24:54;96183.80;;;13.80;36.93
61357;BME280;47227;46.752;23.576;2023-03-03T13:27:37;96183.73;;;13.40;37.32
61357;BME280;47227;46.752;23.576;2023-03-03T13:30:23;96184.45;;;12.95;38.29
61357;BME280;47227;46.752;23.576;2023-03-03T13:33:03;96186.48;;;12.42;39.11
61357;BME280;47227;46.752;23.576;2023-03-03T13:35:58;96185.15;;;12.30;39.86
61357;BME280;47227;46.752;23.576;2023-03-03T13:38:35;96184.63;;;12.33;40.26
61357;BME280;47227;46.752;23.576;2023-03-03T13:41:30;96183.20;;;12.15;40.15
61357;BME280;47227;46.752;23.576;2023-03-03T13:44:10;96180.53;;;11.65;40.70
61357;BME280;47227;46.752;23.576;2023-03-03T13:46:59;96182.66;;;11.61;40.45
61357;BME280;47227;46.752;23.576;2023-03-03T13:49:54;96179.46;;;11.31;40.86
61357;BME280;47227;46.752;23.576;2023-03-03T13:52:30;96174.55;;;10.95;41.66
61357;BME280;47227;46.752;23.576;2023-03-03T13:55:08;96170.17;;;10.71;42.37
61357;BME280;47227;46.752;23.576;2023-03-03T13:57:59;96172.48;;;10.47;43.05
61357;BME280;47227;46.752;23.576;2023-03-03T14:07:11;96164.65;;;10.21;43.45
61357;BME280;47227;46.752;23.576;2023-03-03T14:10:35;96168.05;;;10.83;42.79
61357;BME280;47227;46.752;23.576;2023-03-03T14:23:51;96160.32;;;14.05;36.82
61357;BME280;47227;46.752;23.576;2023-03-03T14:26:45;96161.47;;;14.17;34.67
61357;BME280;47227;46.752;23.576;2023-03-03T14:29:44;96160.93;;;12.96;38.70
61357;BME280;47227;46.752;23.576;2023-03-03T14:33:32;96161.80;;;12.31;41.29
61357;BME280;47227;46.752;23.576;2023-03-03T14:36:42;96158.52;;;11.57;43.11
61357;BME280;47227;46.752;23.576;2023-03-03T14:42:54;96157.47;;;10.63;45.09
61357;BME280;47227;46.752;23.576;2023-03-03T14:45:54;96155.81;;;10.97;44.09
61357;BME280;47227;46.752;23.576;2023-03-03T15:07:29;96151.34;;;11.10;44.24
61357;BME280;47227;46.752;23.576;2023-03-03T15:10:09;96149.75;;;11.32;43.28
61357;BME280;47227;46.752;23.576;2023-03-03T15:12:41;96151.53;;;11.43;43.20
61357;BME280;47227;46.752;23.576;2023-03-03T15:15:19;96155.39;;;11.45;43.23
61357;BME280;47227;46.752;23.576;2023-03-03T15:18:09;96156.00;;;10.99;43.85
61357;BME280;47227;46.752;23.576;2023-03-03T15:21:12;96158.50;;;10.45;45.58
61357;BME280;47227;46.752;23.576;2023-03-03T15:30:35;96157.69;;;8.97;49.83
61357;BME280;47227;46.752;23.576;2023-03-03T15:33:24;96159.15;;;8.86;49.80
61357;BME280;47227;46.752;23.576;2023-03-03T15:36:17;96156.78;;;8.68;50.15
61357;BME280;47227;46.752;23.576;2023-03-03T15:39:16;96161.69;;;8.74;49.78
61357;BME280;47227;46.752;23.576;2023-03-03T15:42:13;96160.11;;;8.54;50.58
61357;BME280;47227;46.752;23.576;2023-03-03T15:45:42;96166.96;;;8.41;50.36
61357;BME280;47227;46.752;23.576;2023-03-03T15:49:24;96166.23;;;8.16;51.57
61357;BME280;47227;46.752;23.576;2023-03-03T15:52:46;96164.71;;;8.04;51.36
61357;BME280;47227;46.752;23.576;2023-03-03T16:03:52;96168.81;;;7.44;53.79
61357;BME280;47227;46.752;23.576;2023-03-03T16:07:12;96174.69;;;7.33;53.55
61357;BME280;47227;46.752;23.576;2023-03-03T16:13:46;96178.64;;;7.06;53.77
61357;BME280;47227;46.752;23.576;2023-03-03T16:17:31;96178.47;;;6.84;55.50
61357;BME280;47227;46.752;23.576;2023-03-03T16:25:28;96191.13;;;6.54;55.62
61357;BME280;47227;46.752;23.576;2023-03-03T16:31:55;96201.52;;;6.32;57.16
61357;BME280;47227;46.752;23.576;2023-03-03T16:34:46;96204.58;;;6.23;57.01
61357;BME280;47227;46.752;23.576;2023-03-03T16:37:35;96207.34;;;6.15;57.92
61357;BME280;47227;46.752;23.576;2023-03-03T16:41:24;96212.27;;;6.04;58.32
61357;BME280;47227;46.752;23.576;2023-03-03T16:44:10;96212.81;;;5.99;58.34
61357;BME280;47227;46.752;23.576;2023-03-03T16:46:43;96214.23;;;5.95;58.54
61357;BME280;47227;46.752;23.576;2023-03-03T16:49:22;96215.95;;;5.90;58.81
61357;BME280;47227;46.752;23.576;2023-03-03T16:52:11;96220.50;;;5.84;59.86
61357;BME280;47227;46.752;23.576;2023-03-03T16:54:50;96219.11;;;5.79;59.13
61357;BME280;47227;46.752;23.576;2023-03-03T16:57:33;96222.02;;;5.74;58.88
61357;BME280;47227;46.752;23.576;2023-03-03T17:00:11;96226.30;;;5.65;58.68
61357;BME280;47227;46.752;23.576;2023-03-03T17:03:01;96225.96;;;5.59;58.97
61357;BME280;47227;46.752;23.576;2023-03-03T17:08:45;96240.23;;;5.47;59.06
61357;BME280;47227;46.752;23.576;2023-03-03T17:11:29;96237.51;;;5.39;59.12
61357;BME280;47227;46.752;23.576;2023-03-03T17:14:13;96235.41;;;5.31;59.33
61357;BME280;47227;46.752;23.576;2023-03-03T17:16:55;96240.48;;;5.25;59.67
61357;BME280;47227;46.752;23.576;2023-03-03T17:19:46;96238.70;;;5.18;59.92
61357;BME280;47227;46.752;23.576;2023-03-03T17:22:25;96244.03;;;5.12;59.88
61357;BME280;47227;46.752;23.576;2023-03-03T17:25:28;96243.03;;;5.07;60.27
61357;BME280;47227;46.752;23.576;2023-03-03T17:28:20;96251.87;;;5.01;60.63
61357;BME280;47227;46.752;23.576;2023-03-03T17:31:00;96250.27;;;4.97;60.58
61357;BME280;47227;46.752;23.576;2023-03-03T17:36:47;96252.68;;;4.89;60.62
61357;BME280;47227;46.752;23.576;2023-03-03T17:39:42;96258.66;;;4.86;61.02
61357;BME280;47227;46.752;23.576;2023-03-03T17:42:24;96262.92;;;4.82;61.29
61357;BME280;47227;46.752;23.576;2023-03-03T17:45:04;96263.63;;;4.78;61.27
61357;BME280;47227;46.752;23.576;2023-03-03T17:48:02;96262.48;;;4.74;61.43
61357;BME280;47227;46.752;23.576;2023-03-03T17:50:55;96262.55;;;4.70;61.76
61357;BME280;47227;46.752;23.576;2023-03-03T17:53:50;96263.30;;;4.67;61.89
61357;BME280;47227;46.752;23.576;2023-03-03T17:56:28;96267.24;;;4.64;61.91
61357;BME280;47227;46.752;23.576;2023-03-03T17:59:12;96267.14;;;4.61;61.87
61357;BME280;47227;46.752;23.576;2023-03-03T18:08:01;96270.00;;;4.47;61.96
61357;BME280;47227;46.752;23.576;2023-03-03T18:19:44;96277.05;;;4.28;62.76
61357;BME280;47227;46.752;23.576;2023-03-03T18:22:21;96282.07;;;4.23;62.94
61357;BME280;47227;46.752;23.576;2023-03-03T18:24:57;96283.67;;;4.20;62.94
61357;BME280;47227;46.752;23.576;2023-03-03T18:27:30;96287.85;;;4.18;63.57
61357;BME280;47227;46.752;23.576;2023-03-03T18:30:20;96291.84;;;4.15;63.65
61357;BME280;47227;46.752;23.576;2023-03-03T18:33:02;96291.04;;;4.11;63.57
61357;BME280;47227;46.752;23.576;2023-03-03T18:35:36;96293.37;;;4.06;63.78
61357;BME280;47227;46.752;23.576;2023-03-03T18:38:21;96291.90;;;4.03;64.04
61357;BME280;47227;46.752;23.576;2023-03-03T18:40:58;96296.19;;;3.99;64.52
61357;BME280;47227;46.752;23.576;2023-03-03T18:43:48;96302.18;;;3.96;64.91
61357;BME280;47227;46.752;23.576;2023-03-03T18:46:44;96301.39;;;3.94;65.14
61357;BME280;47227;46.752;23.576;2023-03-03T18:49:14;96303.26;;;3.95;65.21
61357;BME280;47227;46.752;23.576;2023-03-03T18:51:47;96301.50;;;3.96;65.64
61357;BME280;47227;46.752;23.576;2023-03-03T18:57:34;96295.27;;;4.01;65.74
61357;BME280;47227;46.752;23.576;2023-03-03T19:20:11;96301.30;;;4.00;66.40
61357;BME280;47227;46.752;23.576;2023-03-03T19:22:46;96304.96;;;3.98;66.38
61357;BME280;47227;46.752;23.576;2023-03-03T19:25:20;96304.27;;;3.96;66.31
61357;BME280;47227;46.752;23.576;2023-03-03T19:36:23;96309.64;;;3.81;67.16
61357;BME280;47227;46.752;23.576;2023-03-03T19:42:32;96308.70;;;3.74;67.38
61357;BME280;47227;46.752;23.576;2023-03-03T19:54:52;96306.81;;;3.61;67.21
61357;BME280;47227;46.752;23.576;2023-03-03T19:57:43;96312.20;;;3.58;67.52
61357;BME280;47227;46.752;23.576;2023-03-03T20:00:29;96310.13;;;3.57;67.61
61357;BME280;47227;46.752;23.576;2023-03-03T20:03:27;96309.94;;;3.57;67.59
61357;BME280;47227;46.752;23.576;2023-03-03T20:12:02;96314.63;;;3.62;68.11
61357;BME280;47227;46.752;23.576;2023-03-03T20:14:43;96317.66;;;3.64;68.20
61357;BME280;47227;46.752;23.576;2023-03-03T20:23:07;96320.34;;;3.59;68.06
61357;BME280;47227;46.752;23.576;2023-03-03T20:25:44;96322.77;;;3.55;68.04
61357;BME280;47227;46.752;23.576;2023-03-03T20:47:38;96335.09;;;2.99;68.52
61357;BME280;47227;46.752;23.576;2023-03-03T20:56:27;96346.66;;;2.81;68.72
61357;BME280;47227;46.752;23.576;2023-03-03T21:04:40;96345.51;;;2.82;69.12
61357;BME280;47227;46.752;23.576;2023-03-03T21:19:06;96349.84;;;3.02;69.25
61357;BME280;47227;46.752;23.576;2023-03-03T21:21:55;96350.97;;;3.08;69.46
61357;BME280;47227;46.752;23.576;2023-03-03T21:27:36;96356.05;;;3.17;69.65
61357;BME280;47227;46.752;23.576;2023-03-03T21:30:09;96356.21;;;3.19;69.77
61357;BME280;47227;46.752;23.576;2023-03-03T21:32:41;96356.16;;;3.19;69.84
61357;BME280;47227;46.752;23.576;2023-03-03T21:35:13;96360.63;;;3.18;69.61
61357;BME280;47227;46.752;23.576;2023-03-03T21:40:27;96360.45;;;3.10;69.37
61357;BME280;47227;46.752;23.576;2023-03-03T21:42:58;96361.89;;;3.04;69.27
61357;BME280;47227;46.752;23.576;2023-03-03T21:45:27;96366.02;;;2.97;70.11
61357;BME280;47227;46.752;23.576;2023-03-03T21:47:57;96359.35;;;2.92;69.62
61357;BME280;47227;46.752;23.576;2023-03-03T21:50:29;96362.84;;;2.86;69.75
61357;BME280;47227;46.752;23.576;2023-03-03T21:53:02;96360.24;;;2.78;69.89
61357;BME280;47227;46.752;23.576;2023-03-03T21:55:31;96362.12;;;2.70;69.65
61357;BME280;47227;46.752;23.576;2023-03-03T21:57:59;96361.39;;;2.62;69.61
61357;BME280;47227;46.752;23.576;2023-03-03T22:00:32;96364.19;;;2.55;69.94
61357;BME280;47227;46.752;23.576;2023-03-03T22:03:02;96364.25;;;2.47;70.28
61357;BME280;47227;46.752;23.576;2023-03-03T22:05:31;96365.73;;;2.41;70.44
61357;BME280;47227;46.752;23.576;2023-03-03T22:08:00;96369.18;;;2.36;70.55
61357;BME280;47227;46.752;23.576;2023-03-03T22:10:28;96368.73;;;2.30;70.39
61357;BME280;47227;46.752;23.576;2023-03-03T22:12:58;96369.25;;;2.24;70.03